createdAt,value
2022-11-19T00:00:32.739Z,993.26
2022-11-19T00:05:32.749Z,993.51
2022-11-19T00:10:32.626Z,993.54
2022-11-19T00:15:32.697Z,993.51
2022-11-19T00:20:32.542Z,993.57
2022-11-19T00:25:35.411Z,993.51
2022-11-19T00:30:47.549Z,993.54
2022-11-19T00:35:33.291Z,993.64
2022-11-19T00:40:32.224Z,993.79
2022-11-19T00:45:39.561Z,993.74
2022-11-19T00:50:32.100Z,993.66
2022-11-19T00:55:39.524Z,993.82
2022-11-19T01:00:39.427Z,993.94
2022-11-19T01:05:31.945Z,993.91
2022-11-19T01:10:31.799Z,993.98
2022-11-19T01:15:31.930Z,993.99
2022-11-19T01:20:31.742Z,994.03
2022-11-19T01:25:34.752Z,993.99
2022-11-19T01:30:31.600Z,993.98
2022-11-19T01:35:31.550Z,993.93
2022-11-19T01:40:31.585Z,994.07
2022-11-19T01:45:31.858Z,994.11
2022-11-19T01:50:31.290Z,994.08
2022-11-19T01:55:31.278Z,994.00
2022-11-19T02:00:31.193Z,994.06
2022-11-19T02:05:31.443Z,994.07
2022-11-19T02:10:31.071Z,994.08
2022-11-19T02:15:31.120Z,993.97
2022-11-19T02:20:30.945Z,994.01
2022-11-19T02:25:33.961Z,994.04
2022-11-19T02:30:30.872Z,994.04
2022-11-19T02:35:31.625Z,994.03
2022-11-19T02:40:30.701Z,994.04
2022-11-19T02:45:30.675Z,994.11
2022-11-19T02:50:30.582Z,994.12
2022-11-19T02:55:30.696Z,994.15
2022-11-19T03:00:30.441Z,994.22
2022-11-19T03:05:30.400Z,994.20
2022-11-19T03:10:30.381Z,994.30
2022-11-19T03:15:30.294Z,994.35
2022-11-19T03:20:30.164Z,994.26
2022-11-19T03:25:33.185Z,994.40
2022-11-19T03:30:37.917Z,994.37
2022-11-19T03:35:29.962Z,994.37
2022-11-19T03:40:30.454Z,994.46
2022-11-19T03:45:30.130Z,994.47
2022-11-19T03:50:37.374Z,994.43
2022-11-19T03:55:29.856Z,994.45
2022-11-19T04:00:29.830Z,994.47
2022-11-19T04:05:29.706Z,994.55
2022-11-19T04:10:29.564Z,994.62
2022-11-19T04:15:29.611Z,994.60
2022-11-19T04:20:29.595Z,994.68
2022-11-19T04:25:32.393Z,994.67
2022-11-19T04:30:29.392Z,994.81
2022-11-19T04:35:29.300Z,994.73
2022-11-19T04:40:29.297Z,994.75
2022-11-19T04:45:29.880Z,994.75
2022-11-19T04:50:29.024Z,994.77
2022-11-19T04:55:29.040Z,994.85
2022-11-19T05:00:28.930Z,994.83
2022-11-19T05:05:28.970Z,994.83
2022-11-19T05:10:28.800Z,994.83
2022-11-19T05:15:28.755Z,994.88
2022-11-19T05:20:28.880Z,995.09
2022-11-19T05:25:39.589Z,995.11
2022-11-19T05:30:28.568Z,995.17
2022-11-19T05:35:28.646Z,995.12
2022-11-19T05:40:28.410Z,995.11
2022-11-19T05:45:28.494Z,995.06
2022-11-19T05:50:28.371Z,995.05
2022-11-19T05:55:28.462Z,995.10
2022-11-19T06:00:28.238Z,995.09
2022-11-19T06:05:28.505Z,995.15
2022-11-19T06:10:28.255Z,995.24
2022-11-19T06:15:36.132Z,995.16
2022-11-19T06:20:27.945Z,995.19
2022-11-19T06:25:30.911Z,995.22
2022-11-19T06:30:27.806Z,995.23
2022-11-19T06:35:27.756Z,995.28
2022-11-19T06:40:27.672Z,995.35
2022-11-19T06:45:27.668Z,995.41
2022-11-19T06:50:27.569Z,995.46
2022-11-19T06:55:28.167Z,995.56
2022-11-19T07:00:27.576Z,995.64
2022-11-19T07:05:27.563Z,995.67
2022-11-19T07:10:27.282Z,995.70
2022-11-19T07:15:27.230Z,995.72
2022-11-19T07:20:27.148Z,995.66
2022-11-19T07:25:30.144Z,995.66
2022-11-19T07:30:27.126Z,995.75
2022-11-19T07:35:26.995Z,995.80
2022-11-19T07:40:27.107Z,995.72
2022-11-19T07:45:27.036Z,995.86
2022-11-19T07:50:26.795Z,995.86
2022-11-19T07:55:26.801Z,995.95
2022-11-19T08:00:26.731Z,995.87
2022-11-19T08:05:26.671Z,995.99
2022-11-19T08:10:31.466Z,996.01
2022-11-19T08:15:27.620Z,995.93
2022-11-19T08:20:26.435Z,995.93
2022-11-19T08:25:29.375Z,995.96
2022-11-19T08:30:26.353Z,996.00
2022-11-19T08:35:26.419Z,996.08
2022-11-19T08:40:26.310Z,996.09
2022-11-19T08:45:26.545Z,996.06
2022-11-19T08:50:26.070Z,996.06
2022-11-19T08:55:26.027Z,996.03
2022-11-19T09:00:33.810Z,996.00
2022-11-19T09:05:33.680Z,996.01
2022-11-19T09:10:26.590Z,996.04
2022-11-19T09:15:25.756Z,996.07
2022-11-19T09:20:25.784Z,996.11
2022-11-19T09:25:28.664Z,996.05
2022-11-19T09:30:25.684Z,995.97
2022-11-19T09:35:26.145Z,995.97
2022-11-19T09:40:25.751Z,996.01
2022-11-19T09:45:25.449Z,996.01
2022-11-19T09:50:25.344Z,996.13
2022-11-19T09:55:25.264Z,995.98
2022-11-19T10:00:25.189Z,995.92
2022-11-19T10:05:25.277Z,995.83
2022-11-19T10:10:25.038Z,995.79
2022-11-19T10:15:25.915Z,995.68
2022-11-19T10:20:24.898Z,995.51
2022-11-19T10:25:35.665Z,995.63
2022-11-19T10:30:32.298Z,995.62
2022-11-19T10:35:24.735Z,995.67
2022-11-19T10:40:32.504Z,995.64
2022-11-19T10:45:31.609Z,995.65
2022-11-19T10:50:31.868Z,995.59
2022-11-19T10:55:31.499Z,995.61
2022-11-19T11:00:32.261Z,995.61
2022-11-19T11:05:24.375Z,995.59
2022-11-19T11:10:24.329Z,995.55
2022-11-19T11:15:24.264Z,995.59
2022-11-19T11:20:32.787Z,995.59
2022-11-19T11:25:27.247Z,995.48
2022-11-19T11:30:24.286Z,995.46
2022-11-19T11:35:23.999Z,995.32
2022-11-19T11:40:24.242Z,995.34
2022-11-19T11:45:23.910Z,995.32
2022-11-19T11:51:41.589Z,995.17
2022-11-19T11:56:41.329Z,995.18
2022-11-19T12:01:41.416Z,995.12
2022-11-19T12:06:41.360Z,995.09
2022-11-19T12:11:41.343Z,995.11
2022-11-19T12:16:41.057Z,995.10
2022-11-19T12:21:41.226Z,995.11
2022-11-19T12:26:41.155Z,995.08
2022-11-19T12:33:32.551Z,995.08
2022-11-19T12:39:50.829Z,995.03
2022-11-19T12:44:50.762Z,995.06
2022-11-19T12:49:50.605Z,995.09
2022-11-19T12:54:50.486Z,994.99
2022-11-19T12:59:50.572Z,994.96
2022-11-19T13:08:45.210Z,995.00
2022-11-19T13:17:42.756Z,994.95
2022-11-19T13:22:42.622Z,994.88
2022-11-19T13:27:42.669Z,994.85
2022-11-19T13:32:42.455Z,994.80
2022-11-19T13:37:42.423Z,994.85
2022-11-19T13:42:42.287Z,994.92
2022-11-19T13:47:42.350Z,994.86
2022-11-19T13:52:42.170Z,994.87
2022-11-19T13:57:42.065Z,994.83
2022-11-19T14:02:42.243Z,994.87
2022-11-19T14:07:45.248Z,994.86
2022-11-19T14:12:42.169Z,994.92
2022-11-19T14:17:41.929Z,994.97
2022-11-19T14:22:41.761Z,994.92
2022-11-19T14:27:41.809Z,994.90
2022-11-19T14:34:10.367Z,994.82
2022-11-19T14:39:10.098Z,994.85
2022-11-19T14:44:10.234Z,994.99
2022-11-19T14:49:09.995Z,995.04
2022-11-19T14:54:09.989Z,995.06
2022-11-19T14:59:09.881Z,995.01
2022-11-19T15:04:09.759Z,995.09
2022-11-19T15:09:09.674Z,995.09
2022-11-19T15:14:09.665Z,995.06
2022-11-19T15:19:09.706Z,995.10
2022-11-19T15:24:12.587Z,995.03
2022-11-19T15:29:09.400Z,995.04
2022-11-19T15:34:09.486Z,994.99
2022-11-19T15:39:09.294Z,994.92
2022-11-19T15:44:09.422Z,994.87
2022-11-19T15:49:17.293Z,994.92
2022-11-19T15:54:16.574Z,994.94
2022-11-19T15:59:09.222Z,994.99
2022-11-19T16:04:08.947Z,995.00
2022-11-19T16:09:08.948Z,995.03
2022-11-19T16:14:08.837Z,994.97
2022-11-19T16:19:09.054Z,995.02
2022-11-19T16:24:11.733Z,995.03
2022-11-19T16:29:08.839Z,995.02
2022-11-19T16:34:08.799Z,995.11
2022-11-19T16:39:08.509Z,995.23
2022-11-19T16:44:08.675Z,995.27
2022-11-19T16:49:08.516Z,995.19
2022-11-19T16:54:08.342Z,995.23
2022-11-19T16:59:08.332Z,995.21
2022-11-19T17:04:15.564Z,995.16
2022-11-19T17:09:15.804Z,995.21
2022-11-19T17:14:15.525Z,995.13
2022-11-19T17:19:08.074Z,995.22
2022-11-19T17:24:22.536Z,995.20
2022-11-19T17:29:08.911Z,995.25
2022-11-19T17:34:07.875Z,995.37
2022-11-19T17:39:15.317Z,995.39
2022-11-19T17:44:18.096Z,995.39
2022-11-19T17:49:15.065Z,995.42
2022-11-19T17:54:07.614Z,995.42
2022-11-19T17:59:07.555Z,995.47
2022-11-19T18:04:08.270Z,995.46
2022-11-19T18:09:07.476Z,995.44
2022-11-19T18:14:07.339Z,995.42
2022-11-19T18:19:07.331Z,995.44
2022-11-19T18:24:10.322Z,995.38
2022-11-19T18:29:07.143Z,995.45
2022-11-19T18:34:07.099Z,995.54
2022-11-19T18:39:06.987Z,995.54
2022-11-19T18:44:06.975Z,995.52
2022-11-19T18:49:06.977Z,995.54
2022-11-19T18:54:06.945Z,995.61
2022-11-19T18:59:06.771Z,995.59
2022-11-19T19:04:06.806Z,995.52
2022-11-19T19:09:06.639Z,995.47
2022-11-19T19:14:06.660Z,995.57
2022-11-19T19:19:06.494Z,995.62
2022-11-19T19:24:09.503Z,995.61
2022-11-19T19:29:06.621Z,995.66
2022-11-19T19:34:06.464Z,995.67
2022-11-19T19:39:06.365Z,995.71
2022-11-19T19:44:06.265Z,995.70
2022-11-19T19:49:06.174Z,995.79
2022-11-19T19:54:06.162Z,995.81
2022-11-19T19:59:06.241Z,995.74
2022-11-19T20:04:06.083Z,995.79
2022-11-19T20:09:21.811Z,995.77
2022-11-19T20:15:17.127Z,995.79
2022-11-19T20:20:16.889Z,995.76
2022-11-19T20:25:17.040Z,995.82
2022-11-19T20:30:16.969Z,995.83
2022-11-19T20:35:16.728Z,995.88
2022-11-19T20:40:16.639Z,995.86
2022-11-19T20:45:16.642Z,995.92
2022-11-19T20:50:16.536Z,995.88
2022-11-19T20:55:16.510Z,995.89
2022-11-19T21:00:16.364Z,995.87
2022-11-19T21:05:19.458Z,995.82
2022-11-19T21:10:23.359Z,995.80
2022-11-19T21:15:23.698Z,995.80
2022-11-19T21:20:16.105Z,995.83
2022-11-19T21:25:16.214Z,995.76
2022-11-19T21:30:16.049Z,995.71
2022-11-19T21:35:16.014Z,995.71
2022-11-19T21:40:15.914Z,995.63
2022-11-19T21:45:15.885Z,995.58
2022-11-19T21:50:15.782Z,995.47
2022-11-19T21:55:15.844Z,995.51
2022-11-19T22:00:15.650Z,995.50
2022-11-19T22:05:18.664Z,995.49
2022-11-19T22:10:15.534Z,995.43
2022-11-19T22:15:16.007Z,995.39
2022-11-19T22:20:15.410Z,995.33
2022-11-19T22:25:15.460Z,995.33
2022-11-19T22:30:15.367Z,995.23
2022-11-19T22:35:15.385Z,995.19
2022-11-19T22:40:15.134Z,995.22
2022-11-19T22:45:15.195Z,995.27
2022-11-19T22:50:15.064Z,995.29
2022-11-19T22:55:15.011Z,995.17
2022-11-19T23:00:14.909Z,995.19
2022-11-19T23:05:25.720Z,995.20
2022-11-19T23:10:14.795Z,995.21
2022-11-19T23:15:14.786Z,995.23
2022-11-19T23:20:14.644Z,995.31
2022-11-19T23:25:14.664Z,995.28
2022-11-19T23:30:14.544Z,995.23
2022-11-19T23:35:14.498Z,995.21
2022-11-19T23:40:14.386Z,995.24
2022-11-19T23:45:14.384Z,995.13
2022-11-19T23:50:14.264Z,995.06
2022-11-19T23:55:14.219Z,995.02
